ルレオ の空港の天気 - METARとTAF

Lulea / Kallax ( ESPA / LLA ) - スウェーデン ルレオ
飛行場実況気象(Metar)
観測時間10/23 15:20 CEST (10/23 13:20 UTC)
風向・風速北北西 1m/s
視程10km以上
天気現象
なし
気温0℃
湿度80%
気圧1031hPa
METARESPA 231320Z 33002KT CAVOK 00/M03 Q1031
過去の天気等 Google飛行場航空写真 Wunderground天気予報

過去48時間のMETAR

飛行場予報(TAF)
発表時間: 10/23 13:22 CEST (10/23 11:22 UTC)
予報対象時間: 23日14時 CEST ~ 23日23時 CEST
風向・風速北 2m/s
視程10km以上
なし
23日14時 CEST ~ 23日20時 CEST に一時的に
全天の8割程度の雲 雲底高度 370m
TAF COR ESPA 231122Z 2312/2321 35003KT CAVOK
TEMPO 2312/2318 BKN012 RMK MIL